Beaver County Airport
KBVI : now visible

Airfield :











YOU CAN JOIN US ON...

 
LOGIN :

Register | Disclaimer

   EN    FR    IT 

 









Legend :    VFR   Marginal VFR   IFR   Intensive IFR   Very Intensive IFR
Visi :
Ceiling :
>= 8 km
>= 3000ft
5 to 8 km
1000 to 3000 ft
1500m to 5 km
500 to 1000 ft
800 to 1500m
200 to 500 ft
< 800m
< 200 ft
Symbols :   Thunderstorms  Fog  Heavy snow  Heavy precipitations  Wind > 20 kt






- Airport Elevation : 1253 ft


KBVI - Beaver County

CURRENT METAR :
  • 181055Z AUTO 11009G15KT 10SM -SN BKN007 OVC023 M03/M05 A3022 RMK AO2 T10351050

EXPIRED METARs :
  • 181036Z AUTO 13008G14KT 10SM BKN007 BKN018 OVC060 M03/M05 A3025 RMK AO2 T10351050
  • 181016Z AUTO 12009KT 10SM SCT007 OVC018 M04/M05 A3025 RMK AO2 T10361052
  • 180955Z AUTO 11006G14KT 10SM BKN007 OVC018 M04/M05 A3026 RMK AO2 T10401055
  • 180935Z AUTO 12008G15KT 10SM BKN007 BKN020 OVC055 M04/M05 A3028 RMK AO2 T10401055
  • 180916Z AUTO 09006G14KT 5SM -SN SCT009 BKN025 OVC060 M04/M05 A3027 RMK AO2 T10421055
  • 180856Z AUTO 08007KT 040V120 1 3/4SM -SN SCT004 BKN009 OVC026 M04/M06 A3032 RMK AO2 T10451058
  • 180836Z AUTO 10006KT 1/4SM +SN OVC003 M04/M06 A3037 RMK AO2 T10451060
  • 180815Z AUTO 10005KT 1 1/4SM -SN OVC012 M04/M06 A3041 RMK AO2 T10431060

TAF KBVI
Valid from the 18 at 10:00 until the 19 at 06:00 UTC


180957Z 1810/1906 12012KT P6SM SCT007 OVC025
TEMPO 1810/1812 BKN007
FM181400 14008KT 1SM -FZRASN BR OVC007
FM181700 17012KT 2SM -RA OVC007 WS020/21045KT
FM182000 20012G22KT 3SM -RA OVC007
FM182300 23015G25KT P6SM OVC010



MET'MAP, your aeronautical weather chart ! - Copyright ORBIFLY December 2007 - Disclaimer

ORBIFLY MET'MAP TEAM :

Programming & Development : Alexandra Zaïnal
Concept & original design : Baudouin d'Aumeries
Assistance for programming : Marc-Olivier Méhu
Technical & hardware support : Manuel Goepfert

Contact : metmap@orbifly.com




SOURCES & CREDITS :

   NOAA       Earth
Advisory